Time;durP1;ratioP1;P1;durP2;ratioP2;P2;SDS_P1;SDS_P2;PMS_P1;PMS_P2;Temp;Humidity;BMP_temperature;BMP_pressure;BME280_temperature;BME280_humidity;BME280_pressure;Samples;Min_cycle;Max_cycle;Signal;HPM_P1;HPM_P2
2022/01/30 00:01:32;;;;;;;;;;;;;;;-13.50;59.86;96372.06;6138799;28;20392;-61
2022/01/30 00:04:35;;;;;;;;;;;;;;;-13.50;59.83;96373.72;6140659;28;19977;-59
2022/01/30 00:07:36;;;;;;;;;;;;;;;-13.53;59.50;96371.13;6137205;28;19926;-61
2022/01/30 00:10:40;;;;;;;;;;;;;;;-13.63;59.25;96375.16;6153887;28;20285;-60
2022/01/30 00:13:43;;;;;;;;;;;;;;;-13.74;59.61;96374.94;6145181;28;20315;-61
2022/01/30 00:16:55;;;;;;;;;;;;;;;-13.83;59.54;96373.06;6146583;28;19926;-61
2022/01/30 00:20:03;;;;;;;;;;;;;;;-13.86;60.07;96372.16;6141976;28;19934;-59
2022/01/30 00:23:26;;;;;;;;;;;;;;;-13.83;60.23;96369.69;6148551;29;19926;-60
2022/01/30 00:26:30;;;;;;;;;;;;;;;-13.39;61.68;96379.84;6142836;28;19926;-59
2022/01/30 00:29:31;;;;;;;;;;;;;;;-13.45;62.60;96375.50;6147280;28;19926;-60
2022/01/30 00:32:35;;;;;;;;;;;;;;;-13.75;62.47;96383.34;6144754;28;19927;-60
2022/01/30 00:35:37;;;;;;;;;;;;;;;-13.94;62.47;96377.03;6140805;28;19927;-59
2022/01/30 00:38:38;;;;;;;;;;;;;;;-14.06;62.37;96364.97;6144773;28;19933;-60
2022/01/30 00:41:42;;;;;;;;;;;;;;;-14.03;62.83;96369.25;6141337;28;19926;-60
2022/01/30 00:44:45;;;;;;;;;;;;;;;-13.98;63.02;96376.91;6147891;28;20311;-60
2022/01/30 00:47:49;;;;;;;;;;;;;;;-14.17;62.91;96371.47;6143975;28;19927;-60
2022/01/30 00:50:50;;;;;;;;;;;;;;;-14.31;63.42;96368.63;6144584;28;20419;-62
2022/01/30 00:53:51;;;;;;;;;;;;;;;-14.40;63.78;96367.56;6147681;28;20356;-59
2022/01/30 00:56:52;;;;;;;;;;;;;;;-14.42;63.32;96369.19;6143807;28;20029;-63
2022/01/30 00:59:54;;;;;;;;;;;;;;;-14.22;63.93;96373.03;6145666;28;19926;-61
2022/01/30 01:02:58;;;;;;;;;;;;;;;-14.47;63.75;96367.41;6142820;28;20659;-60
2022/01/30 01:05:59;;;;;;;;;;;;;;;-14.63;63.94;96367.91;6138880;28;19927;-61
2022/01/30 01:09:04;;;;;;;;;;;;;;;-14.58;64.24;96363.81;6148573;28;20303;-61
2022/01/30 01:12:33;;;;;;;;;;;;;;;-14.68;64.39;96366.94;6139266;28;19927;-60
2022/01/30 01:25:34;;;;;;;;;;;;;;;-14.79;65.84;96373.41;6145133;28;19936;-61
2022/01/30 01:28:35;;;;;;;;;;;;;;;-14.88;65.89;96365.59;6125878;29;19926;-59
2022/01/30 01:31:38;;;;;;;;;;;;;;;-14.91;65.87;96368.06;6139920;29;19930;-60
2022/01/30 01:34:42;;;;;;;;;;;;;;;-14.86;65.96;96366.47;6129580;29;19923;-60
2022/01/30 01:37:43;;;;;;;;;;;;;;;-14.81;66.21;96358.19;6142128;29;19941;-61
2022/01/30 01:40:51;;;;;;;;;;;;;;;-14.79;65.70;96354.03;6146047;28;19926;-59
2022/01/30 01:43:52;;;;;;;;;;;;;;;-14.76;65.93;96349.06;6148140;28;20413;-60
2022/01/30 01:46:56;;;;;;;;;;;;;;;-14.79;65.60;96358.25;6136705;28;19930;-59
2022/01/30 01:49:57;;;;;;;;;;;;;;;-14.81;65.85;96352.28;6145195;28;19933;-63
2022/01/30 01:52:58;;;;;;;;;;;;;;;-14.84;65.43;96354.75;6143992;28;19934;-59
2022/01/30 01:55:59;;;;;;;;;;;;;;;-14.86;65.50;96351.31;6144241;28;19934;-59
2022/01/30 01:59:00;;;;;;;;;;;;;;;-14.88;65.59;96350.47;6146109;28;20420;-60
2022/01/30 02:02:02;;;;;;;;;;;;;;;-14.93;65.36;96351.19;6140528;28;19927;-60
2022/01/30 02:05:05;;;;;;;;;;;;;;;-14.96;65.09;96351.09;6146953;28;19930;-60
2022/01/30 02:11:42;;;;;;;;;;;;;;;-15.06;65.30;96344.09;6151570;28;20013;-61
2022/01/30 02:24:56;;;;;;;;;;;;;;;-15.36;64.76;96338.28;6144697;28;20392;-60
2022/01/30 02:27:59;;;;;;;;;;;;;;;-15.47;64.53;96341.38;6152096;28;20273;-59
2022/01/30 02:31:09;;;;;;;;;;;;;;;-15.53;64.80;96346.25;6149180;28;20407;-61
2022/01/30 02:34:10;;;;;;;;;;;;;;;-15.58;64.90;96332.66;6149971;28;20388;-63
2022/01/30 02:37:13;;;;;;;;;;;;;;;-15.55;64.31;96337.78;6148057;28;19927;-59
2022/01/30 02:40:14;;;;;;;;;;;;;;;-15.49;64.13;96340.47;6148959;28;19927;-62
2022/01/30 02:43:19;;;;;;;;;;;;;;;-15.34;64.22;96334.13;6163067;28;20347;-61
2022/01/30 02:46:27;;;;;;;;;;;;;;;-15.23;64.32;96335.25;6146611;28;19926;-61
2022/01/30 02:50:21;;;;;;;;;;;;;;;-15.13;63.74;96324.59;6148246;28;19926;-62
2022/01/30 02:52:57;;;;;;;;;;;;;;;-14.79;63.99;96320.38;6145470;28;19927;-59
2022/01/30 02:56:01;;;;;;;;;;;;;;;-14.69;63.27;96319.75;6149604;28;20021;-60
2022/01/30 02:59:02;;;;;;;;;;;;;;;-14.60;63.32;96317.47;6142033;28;20021;-57
2022/01/30 03:02:03;;;;;;;;;;;;;;;-14.52;63.74;96315.97;6150392;28;19926;-60
2022/01/30 03:05:04;;;;;;;;;;;;;;;-14.55;63.60;96318.44;6145372;28;19926;-58
2022/01/30 03:08:05;;;;;;;;;;;;;;;-14.54;64.02;96315.09;6147339;28;20320;-60
2022/01/30 03:11:06;;;;;;;;;;;;;;;-14.37;64.05;96309.53;6149577;28;19956;-61
2022/01/30 03:14:07;;;;;;;;;;;;;;;-14.08;64.25;96315.22;6148305;28;19926;-61
2022/01/30 03:17:09;;;;;;;;;;;;;;;-14.12;64.25;96309.25;6148216;28;19926;-58
2022/01/30 03:20:13;;;;;;;;;;;;;;;-14.15;64.21;96319.28;6150805;28;19960;-61
2022/01/30 03:23:14;;;;;;;;;;;;;;;-14.22;64.47;96311.53;6140454;28;19941;-60
2022/01/30 03:26:15;;;;;;;;;;;;;;;-14.12;64.94;96309.25;6142530;28;20408;-59
2022/01/30 03:29:18;;;;;;;;;;;;;;;-14.19;64.90;96311.59;6140547;28;20302;-60
2022/01/30 03:32:19;;;;;;;;;;;;;;;-14.05;65.26;96300.09;6148519;28;20005;-60
2022/01/30 03:35:20;;;;;;;;;;;;;;;-13.97;65.19;96302.78;6141546;28;20400;-59
2022/01/30 03:38:22;;;;;;;;;;;;;;;-14.02;64.98;96301.00;6143123;28;19933;-60
2022/01/30 03:41:23;;;;;;;;;;;;;;;-14.11;65.48;96308.41;6160455;28;19927;-60
2022/01/30 03:44:24;;;;;;;;;;;;;;;-14.19;65.75;96309.91;6146126;28;20403;-60
2022/01/30 03:47:27;;;;;;;;;;;;;;;-14.16;66.13;96307.44;6139437;28;19934;-60
2022/01/30 03:50:29;;;;;;;;;;;;;;;-14.17;65.48;96313.34;6142155;28;19949;-61
2022/01/30 03:53:32;;;;;;;;;;;;;;;-14.08;66.23;96318.59;6142658;28;19926;-61
2022/01/30 03:56:35;;;;;;;;;;;;;;;-13.80;65.75;96312.44;6144442;28;19960;-60
2022/01/30 03:59:36;;;;;;;;;;;;;;;-13.96;65.74;96307.03;6144531;28;19927;-61
2022/01/30 04:02:37;;;;;;;;;;;;;;;-14.00;65.83;96302.75;6148471;28;19953;-62
2022/01/30 04:05:38;;;;;;;;;;;;;;;-14.04;65.84;96302.69;6142559;28;19922;-61
2022/01/30 04:08:39;;;;;;;;;;;;;;;-13.82;65.65;96308.16;6137179;28;19980;-63
2022/01/30 04:11:40;;;;;;;;;;;;;;;-13.72;65.75;96315.13;6139267;28;20304;-62
2022/01/30 04:14:42;;;;;;;;;;;;;;;-13.63;65.24;96315.28;6148083;28;20024;-60
2022/01/30 04:17:44;;;;;;;;;;;;;;;-13.59;65.79;96321.25;6140148;28;20392;-61
2022/01/30 04:20:47;;;;;;;;;;;;;;;-13.49;65.48;96313.03;6143067;28;19927;-61
2022/01/30 04:23:48;;;;;;;;;;;;;;;-13.32;65.68;96326.00;6142689;28;19927;-63
2022/01/30 04:26:55;;;;;;;;;;;;;;;-13.04;65.61;96316.34;6146820;28;19926;-59
2022/01/30 04:29:56;;;;;;;;;;;;;;;-12.85;64.75;96322.56;6138865;28;20380;-62
2022/01/30 04:32:57;;;;;;;;;;;;;;;-12.75;64.18;96315.16;6132076;28;20457;-60
2022/01/30 04:36:02;;;;;;;;;;;;;;;-12.50;64.18;96320.63;6149208;28;19926;-60
2022/01/30 04:39:34;;;;;;;;;;;;;;;-12.10;63.31;96311.91;6135535;28;19927;-63
2022/01/30 04:52:03;;;;;;;;;;;;;;;-12.15;63.22;96320.28;6142669;28;19926;-61
2022/01/30 05:02:43;;;;;;;;;;;;;;;-11.35;61.72;96307.75;6146235;29;19942;-60
2022/01/30 05:08:51;;;;;;;;;;;;;;;-11.14;61.31;96311.34;6133356;29;20389;-62
2022/01/30 05:11:53;;;;;;;;;;;;;;;-10.93;61.34;96311.53;6146802;28;19926;-61
2022/01/30 05:14:56;;;;;;;;;;;;;;;-10.71;60.70;96302.41;6138922;28;19930;-60
2022/01/30 05:18:00;;;;;;;;;;;;;;;-10.63;60.48;96310.13;6140652;28;20021;-62
2022/01/30 05:21:01;;;;;;;;;;;;;;;-10.41;60.38;96314.53;6142082;28;19927;-62
2022/01/30 05:24:04;;;;;;;;;;;;;;;-10.07;60.21;96318.97;6145568;28;20021;-60
2022/01/30 05:27:06;;;;;;;;;;;;;;;-9.67;59.34;96317.50;6139994;28;19930;-62
2022/01/30 05:30:07;;;;;;;;;;;;;;;-9.53;58.45;96323.50;6141962;28;19937;-63
2022/01/30 05:33:09;;;;;;;;;;;;;;;-9.37;58.82;96319.34;6148913;28;20025;-62
2022/01/30 05:36:10;;;;;;;;;;;;;;;-8.95;57.67;96316.88;6149168;28;19926;-62
2022/01/30 05:39:11;;;;;;;;;;;;;;;-8.95;57.32;96311.78;6137801;28;20384;-62
2022/01/30 05:42:13;;;;;;;;;;;;;;;-8.77;57.30;96319.50;6152030;28;20331;-63
2022/01/30 05:48:17;;;;;;;;;;;;;;;-8.28;55.93;96316.91;6143389;28;20404;-63
2022/01/30 05:51:18;;;;;;;;;;;;;;;-8.31;56.31;96322.03;6142965;28;20285;-61
2022/01/30 05:54:19;;;;;;;;;;;;;;;-8.23;56.31;96320.31;6152204;28;19931;-63
2022/01/30 05:57:20;;;;;;;;;;;;;;;-8.07;56.42;96322.84;6148583;28;19958;-61
2022/01/30 06:00:24;;;;;;;;;;;;;;;-7.74;56.14;96333.00;6141453;29;19929;-64
2022/01/30 06:03:29;;;;;;;;;;;;;;;-7.45;55.95;96330.38;6151946;28;20403;-62
2022/01/30 06:06:34;;;;;;;;;;;;;;;-7.14;55.58;96337.09;6148572;28;19930;-62
2022/01/30 06:09:35;;;;;;;;;;;;;;;-6.86;54.95;96338.66;6149747;28;19994;-63
2022/01/30 06:12:39;;;;;;;;;;;;;;;-6.34;54.55;96342.56;6151943;28;19923;-61
2022/01/30 06:15:40;;;;;;;;;;;;;;;-5.77;54.56;96336.97;6145347;28;19926;-61
2022/01/30 06:18:41;;;;;;;;;;;;;;;-5.36;53.34;96338.25;6140895;28;19926;-63
2022/01/30 06:21:45;;;;;;;;;;;;;;;-4.79;51.87;96323.00;6148777;28;19926;-61
2022/01/30 06:24:51;;;;;;;;;;;;;;;-4.57;51.06;96324.41;6148944;28;19927;-61
2022/01/30 06:27:52;;;;;;;;;;;;;;;-4.10;52.02;96312.56;6159067;28;19937;-65
2022/01/30 06:30:53;;;;;;;;;;;;;;;-3.35;51.09;96324.94;6143354;28;20345;-67
2022/01/30 06:33:55;;;;;;;;;;;;;;;-2.60;49.48;96331.16;6149885;28;20024;-67
2022/01/30 06:36:58;;;;;;;;;;;;;;;-2.33;48.87;96329.66;6150452;28;19990;-67
2022/01/30 06:39:59;;;;;;;;;;;;;;;-2.65;48.68;96317.53;6137875;28;19934;-67
2022/01/30 06:43:01;;;;;;;;;;;;;;;-2.40;49.39;96323.81;6137668;28;20459;-66
2022/01/30 06:46:05;;;;;;;;;;;;;;;-1.90;48.84;96326.06;6149111;28;19922;-67
2022/01/30 06:49:10;;;;;;;;;;;;;;;-1.46;45.82;96330.13;6143502;28;19930;-67
2022/01/30 06:52:15;;;;;;;;;;;;;;;-0.98;46.80;96337.41;6134645;28;20400;-66
2022/01/30 06:55:16;;;;;;;;;;;;;;;-0.26;47.06;96332.69;6144073;28;20021;-67
2022/01/30 06:58:19;;;;;;;;;;;;;;;0.52;45.78;96344.03;6144328;28;19926;-67
2022/01/30 07:01:20;;;;;;;;;;;;;;;0.93;43.15;96336.56;6138482;28;19935;-67
2022/01/30 07:04:22;;;;;;;;;;;;;;;0.96;43.31;96332.13;6134622;28;20440;-68
2022/01/30 07:07:26;;;;;;;;;;;;;;;1.39;39.64;96330.59;6139843;28;20059;-66
2022/01/30 07:10:27;;;;;;;;;;;;;;;1.68;38.88;96332.06;6145235;28;19953;-67
2022/01/30 07:13:31;;;;;;;;;;;;;;;2.04;39.03;96339.34;6143275;28;19927;-66
2022/01/30 07:16:35;;;;;;;;;;;;;;;2.52;36.38;96351.25;6144572;28;20008;-66
2022/01/30 07:19:41;;;;;;;;;;;;;;;2.85;35.63;96353.31;6145334;28;19926;-67
2022/01/30 07:22:44;;;;;;;;;;;;;;;3.27;34.40;96348.00;6144009;28;19926;-67
2022/01/30 07:25:45;;;;;;;;;;;;;;;3.85;32.30;96341.06;6131417;28;19942;-66
2022/01/30 07:28:48;;;;;;;;;;;;;;;4.35;30.71;96351.69;6140030;28;19978;-66
2022/01/30 07:31:50;;;;;;;;;;;;;;;4.52;30.62;96352.63;6136052;28;20065;-67
2022/01/30 07:34:51;;;;;;;;;;;;;;;5.18;29.79;96357.97;6138393;28;20359;-68
2022/01/30 07:37:52;;;;;;;;;;;;;;;5.29;27.87;96355.63;6140870;28;19969;-66
2022/01/30 07:40:54;;;;;;;;;;;;;;;4.31;29.09;96349.31;6133797;29;19934;-66
2022/01/30 07:43:57;;;;;;;;;;;;;;;4.37;30.66;96352.47;6130522;28;19931;-67
2022/01/30 07:47:00;;;;;;;;;;;;;;;5.05;29.42;96354.31;6139463;28;19922;-67
2022/01/30 07:50:04;;;;;;;;;;;;;;;5.71;28.07;96351.69;6134379;28;19927;-67
2022/01/30 07:53:07;;;;;;;;;;;;;;;5.21;28.85;96352.59;6143404;28;19922;-66
2022/01/30 07:56:12;;;;;;;;;;;;;;;4.68;30.08;96340.53;6143597;28;19926;-67
2022/01/30 07:59:18;;;;;;;;;;;;;;;4.23;30.14;96341.88;6142604;28;19974;-68
2022/01/30 08:02:23;;;;;;;;;;;;;;;4.00;30.08;96350.78;6145890;28;19938;-67
2022/01/30 08:05:27;;;;;;;;;;;;;;;2.68;30.46;96341.88;6143162;28;20393;-68
2022/01/30 08:08:28;;;;;;;;;;;;;;;1.67;32.47;96340.75;6142700;28;20389;-67
2022/01/30 08:11:29;;;;;;;;;;;;;;;1.09;33.68;96327.38;6146285;28;20388;-67
2022/01/30 08:14:33;;;;;;;;;;;;;;;1.98;32.92;96336.97;6141106;28;19934;-67
2022/01/30 08:17:37;;;;;;;;;;;;;;;2.94;32.18;96334.72;6153756;28;19926;-66
2022/01/30 08:20:39;;;;;;;;;;;;;;;3.81;30.78;96337.75;6133470;28;19935;-66
2022/01/30 08:23:40;;;;;;;;;;;;;;;4.87;27.92;96338.69;6144635;28;19933;-66
2022/01/30 08:26:41;;;;;;;;;;;;;;;6.25;28.93;96340.94;6142370;28;19929;-67
2022/01/30 08:29:42;;;;;;;;;;;;;;;7.63;27.58;96338.88;6138753;28;20091;-67
2022/01/30 08:32:45;;;;;;;;;;;;;;;8.77;25.64;96334.28;6133395;28;20323;-67
2022/01/30 08:35:46;;;;;;;;;;;;;;;8.48;24.81;96331.78;6134505;28;20081;-65
2022/01/30 08:38:48;;;;;;;;;;;;;;;7.53;27.03;96331.69;6164456;28;19926;-66
2022/01/30 08:41:52;;;;;;;;;;;;;;;7.43;29.55;96336.66;6156088;28;19926;-65
2022/01/30 08:44:55;;;;;;;;;;;;;;;7.54;29.90;96344.69;6144442;28;19926;-67
2022/01/30 08:47:56;;;;;;;;;;;;;;;7.18;29.11;96348.59;6137779;28;20324;-65
2022/01/30 08:51:01;;;;;;;;;;;;;;;6.35;30.23;96343.88;6143057;28;20425;-65
2022/01/30 08:54:02;;;;;;;;;;;;;;;6.65;28.39;96339.53;6139388;28;20308;-66
2022/01/30 08:57:06;;;;;;;;;;;;;;;7.77;25.71;96345.06;6158340;28;19927;-66
2022/01/30 09:00:09;;;;;;;;;;;;;;;8.19;27.96;96351.16;6144024;28;19931;-66
2022/01/30 09:03:13;;;;;;;;;;;;;;;8.29;28.25;96341.75;6138501;28;19927;-66
2022/01/30 09:06:15;;;;;;;;;;;;;;;8.36;27.42;96340.44;6141973;28;20308;-65
2022/01/30 09:09:16;;;;;;;;;;;;;;;8.15;27.86;96341.78;6134584;28;19926;-65
2022/01/30 09:12:19;;;;;;;;;;;;;;;8.16;26.74;96331.22;6140608;28;19926;-66
2022/01/30 09:15:22;;;;;;;;;;;;;;;7.78;27.68;96331.00;6139024;28;20380;-65
2022/01/30 09:18:26;;;;;;;;;;;;;;;6.96;27.92;96343.81;6141255;28;19926;-66
2022/01/30 09:21:34;;;;;;;;;;;;;;;6.29;29.59;96343.28;6143190;28;19933;-65
2022/01/30 09:24:35;;;;;;;;;;;;;;;6.38;29.40;96341.09;6137170;28;19931;-66
2022/01/30 09:27:36;;;;;;;;;;;;;;;6.72;28.10;96334.78;6143218;28;20398;-66
2022/01/30 09:30:42;;;;;;;;;;;;;;;8.10;27.34;96340.31;6147440;28;20293;-66
2022/01/30 09:33:43;;;;;;;;;;;;;;;9.17;25.70;96336.84;6141220;28;20039;-65
2022/01/30 09:36:47;;;;;;;;;;;;;;;9.91;23.36;96343.13;6141292;28;20025;-66
2022/01/30 09:39:48;;;;;;;;;;;;;;;10.64;24.38;96355.41;6139075;28;19931;-66
2022/01/30 09:42:50;;;;;;;;;;;;;;;10.85;22.57;96331.94;6154545;28;20423;-66
2022/01/30 09:45:52;;;;;;;;;;;;;;;9.16;24.23;96335.19;6143185;28;19926;-66
2022/01/30 09:49:01;;;;;;;;;;;;;;;7.59;26.39;96336.56;6146587;28;19926;-66
2022/01/30 09:52:04;;;;;;;;;;;;;;;6.30;27.69;96337.13;6135111;28;19927;-65
2022/01/30 09:55:09;;;;;;;;;;;;;;;4.59;29.48;96341.00;6146102;28;19930;-67
2022/01/30 09:58:13;;;;;;;;;;;;;;;2.91;32.04;96342.66;6139470;28;20324;-66
2022/01/30 10:01:19;;;;;;;;;;;;;;;1.71;34.25;96334.53;6136403;28;19928;-66
2022/01/30 10:04:21;;;;;;;;;;;;;;;0.75;35.63;96327.72;6140797;28;20301;-65
2022/01/30 10:07:37;;;;;;;;;;;;;;;0.10;36.00;96334.19;6138530;28;19959;-66
2022/01/30 10:10:58;;;;;;;;;;;;;;;-0.37;37.31;96333.94;6146405;28;20069;-65
2022/01/30 10:14:06;;;;;;;;;;;;;;;-0.78;38.19;96333.44;6142169;28;20423;-65
2022/01/30 10:17:23;;;;;;;;;;;;;;;-0.77;38.24;96345.44;6146741;28;19926;-65
2022/01/30 10:20:25;;;;;;;;;;;;;;;-1.35;38.96;96337.56;6140140;28;19926;-65
2022/01/30 10:23:32;;;;;;;;;;;;;;;-2.02;40.22;96329.81;6143682;28;20077;-65
2022/01/30 10:26:36;;;;;;;;;;;;;;;-2.73;41.58;96341.69;6148697;28;19927;-65
2022/01/30 10:29:37;;;;;;;;;;;;;;;-2.75;42.30;96351.16;6154535;28;20017;-66
2022/01/30 10:32:52;;;;;;;;;;;;;;;-3.23;42.73;96345.28;6146773;28;19926;-65
2022/01/30 10:35:57;;;;;;;;;;;;;;;-3.18;43.76;96346.91;6146391;28;19934;-65
2022/01/30 10:39:18;;;;;;;;;;;;;;;-3.72;44.67;96346.19;6130839;28;19955;-66
2022/01/30 10:42:30;;;;;;;;;;;;;;;-3.30;44.66;96348.88;6133126;28;20021;-66
2022/01/30 10:45:32;;;;;;;;;;;;;;;-3.26;45.00;96356.47;6143424;28;19937;-66
2022/01/30 10:48:33;;;;;;;;;;;;;;;-1.49;41.40;96361.16;6144149;28;19941;-66
2022/01/30 10:51:34;;;;;;;;;;;;;;;-1.26;40.38;96357.97;6145346;28;20311;-66
2022/01/30 10:54:35;;;;;;;;;;;;;;;-2.03;41.69;96348.75;6140820;28;20017;-66
2022/01/30 10:57:40;;;;;;;;;;;;;;;-2.30;42.38;96348.47;6138086;28;19926;-65
2022/01/30 11:00:43;;;;;;;;;;;;;;;-2.82;43.43;96357.34;6149713;28;19933;-65
2022/01/30 11:03:49;;;;;;;;;;;;;;;-3.32;44.53;96351.47;6147630;29;20550;-65
2022/01/30 11:06:51;;;;;;;;;;;;;;;-3.65;45.20;96358.06;6150170;28;19933;-65
2022/01/30 11:10:03;;;;;;;;;;;;;;;-3.79;45.67;96358.31;6147614;28;19927;-66
2022/01/30 11:13:08;;;;;;;;;;;;;;;-3.82;46.43;96360.94;6143599;28;19932;-65
2022/01/30 11:19:32;;;;;;;;;;;;;;;-4.10;47.54;96360.53;6147695;28;19926;-66
2022/01/30 11:22:37;;;;;;;;;;;;;;;-4.28;48.00;96361.63;6139916;28;19927;-65
2022/01/30 11:25:43;;;;;;;;;;;;;;;-4.85;48.63;96353.88;6142868;28;19930;-66
2022/01/30 11:28:47;;;;;;;;;;;;;;;-5.16;49.90;96364.50;6140578;28;19927;-65
2022/01/30 11:31:49;;;;;;;;;;;;;;;-5.27;51.19;96356.09;6148849;28;19926;-65
2022/01/30 11:34:53;;;;;;;;;;;;;;;-5.28;53.05;96365.50;6131336;28;19934;-65
2022/01/30 11:37:57;;;;;;;;;;;;;;;-5.08;55.57;96372.97;6141324;28;19927;-65
2022/01/30 11:41:14;;;;;;;;;;;;;;;-5.01;55.73;96374.59;6149252;28;20029;-66
2022/01/30 11:44:18;;;;;;;;;;;;;;;-5.30;56.93;96366.38;6135756;28;19934;-66
2022/01/30 11:47:20;;;;;;;;;;;;;;;-5.64;57.92;96371.84;6141384;28;19927;-66
2022/01/30 11:50:24;;;;;;;;;;;;;;;-5.74;58.18;96365.13;6141613;28;19923;-66
2022/01/30 11:53:28;;;;;;;;;;;;;;;-6.05;58.01;96374.81;6137304;28;19930;-67
2022/01/30 11:56:32;;;;;;;;;;;;;;;-6.12;58.97;96366.31;6138256;28;19940;-66
2022/01/30 11:59:37;;;;;;;;;;;;;;;-6.10;59.26;96370.56;6146399;28;20001;-68
2022/01/30 12:02:38;;;;;;;;;;;;;;;-6.32;58.92;96379.25;6138765;28;19930;-69
2022/01/30 12:05:39;;;;;;;;;;;;;;;-6.47;58.66;96382.78;6146868;28;20072;-68
2022/01/30 12:08:48;;;;;;;;;;;;;;;-6.39;59.63;96383.59;6142914;29;19926;-67
2022/01/30 12:11:51;;;;;;;;;;;;;;;-6.28;59.82;96383.53;6146109;28;19926;-67
2022/01/30 12:14:55;;;;;;;;;;;;;;;-6.19;60.01;96375.75;6139099;28;19923;-67
2022/01/30 12:17:59;;;;;;;;;;;;;;;-6.28;59.87;96378.41;6142188;28;20400;-66
2022/01/30 12:21:04;;;;;;;;;;;;;;;-6.16;59.42;96385.13;6141210;28;19933;-67
2022/01/30 12:24:34;;;;;;;;;;;;;;;-5.88;59.01;96394.28;6143956;28;19926;-67
2022/01/30 12:27:55;;;;;;;;;;;;;;;-6.15;57.76;96384.25;6134956;28;19930;-68
2022/01/30 12:31:00;;;;;;;;;;;;;;;-6.28;58.26;96401.44;6144006;28;20491;-72
2022/01/30 12:34:02;;;;;;;;;;;;;;;-6.25;57.11;96390.34;6133649;28;19933;-71
2022/01/30 12:37:03;;;;;;;;;;;;;;;-6.45;56.71;96396.44;6136331;28;19923;-70
2022/01/30 12:40:10;;;;;;;;;;;;;;;-6.60;57.37;96393.94;6146905;28;19926;-71
2022/01/30 12:43:12;;;;;;;;;;;;;;;-6.61;57.35;96394.81;6141849;28;20055;-71
2022/01/30 12:46:16;;;;;;;;;;;;;;;-6.68;57.79;96395.69;6146050;28;19948;-66
2022/01/30 12:49:20;;;;;;;;;;;;;;;-6.86;58.35;96394.91;6147440;28;20017;-61
2022/01/30 12:52:31;;;;;;;;;;;;;;;-6.90;58.85;96403.47;6137262;28;19978;-62
2022/01/30 12:55:32;;;;;;;;;;;;;;;-7.02;58.59;96409.50;6136226;29;20595;-61
2022/01/30 12:58:34;;;;;;;;;;;;;;;-7.01;59.49;96405.22;6137029;29;19926;-62
2022/01/30 13:01:38;;;;;;;;;;;;;;;-6.80;59.20;96411.94;6136533;28;19966;-63
2022/01/30 13:04:39;;;;;;;;;;;;;;;-6.87;59.21;96407.72;6131728;29;19927;-63
2022/01/30 13:07:50;;;;;;;;;;;;;;;-6.77;59.71;96415.34;6143594;29;20016;-64
2022/01/30 13:10:54;;;;;;;;;;;;;;;-6.86;60.04;96410.25;6132880;28;19930;-63
2022/01/30 13:14:05;;;;;;;;;;;;;;;-7.11;60.57;96404.38;6148153;28;20055;-63
2022/01/30 13:17:08;;;;;;;;;;;;;;;-7.38;60.80;96397.66;6147925;28;19926;-63
2022/01/30 13:20:12;;;;;;;;;;;;;;;-7.41;61.68;96424.94;6148735;29;19933;-64
2022/01/30 13:23:13;;;;;;;;;;;;;;;-7.47;61.82;96420.69;6147662;28;20038;-63
2022/01/30 13:26:30;;;;;;;;;;;;;;;-7.53;62.36;96413.91;6148452;28;19926;-63
2022/01/30 13:29:34;;;;;;;;;;;;;;;-7.53;62.23;96415.56;6144475;29;19934;-63
2022/01/30 13:32:38;;;;;;;;;;;;;;;-7.49;62.77;96417.28;6148281;28;19926;-63
2022/01/30 13:35:45;;;;;;;;;;;;;;;-7.06;62.74;96412.06;6145551;28;19923;-62
2022/01/30 13:38:49;;;;;;;;;;;;;;;-7.32;61.96;96407.88;6148406;29;20277;-62
2022/01/30 13:42:03;;;;;;;;;;;;;;;-7.45;62.34;96411.31;6146979;29;19926;-63
2022/01/30 13:48:33;;;;;;;;;;;;;;;-7.65;63.53;96425.81;6139657;28;19922;-64
2022/01/30 13:51:36;;;;;;;;;;;;;;;-7.56;62.67;96428.34;6146935;28;19933;-63
2022/01/30 13:54:39;;;;;;;;;;;;;;;-7.46;62.81;96422.38;6128255;29;19922;-63
2022/01/30 13:57:43;;;;;;;;;;;;;;;-7.37;63.12;96417.25;6149546;29;20009;-63
2022/01/30 14:00:44;;;;;;;;;;;;;;;-7.38;62.66;96420.66;6149527;28;19930;-63
2022/01/30 14:03:46;;;;;;;;;;;;;;;-7.05;62.88;96414.63;6152150;29;20404;-63
2022/01/30 14:06:49;;;;;;;;;;;;;;;-7.24;62.51;96424.03;6152033;28;20219;-63
2022/01/30 14:09:52;;;;;;;;;;;;;;;-7.45;63.91;96414.69;6152764;29;19933;-63
2022/01/30 14:12:58;;;;;;;;;;;;;;;-7.20;63.68;96418.91;6150431;29;19933;-63
2022/01/30 14:16:04;;;;;;;;;;;;;;;-7.14;63.61;96418.91;6152493;29;20380;-64
2022/01/30 14:19:19;;;;;;;;;;;;;;;-7.21;63.79;96427.47;6139616;28;20448;-63
2022/01/30 14:22:26;;;;;;;;;;;;;;;-7.12;64.07;96432.53;6151045;28;19927;-62
2022/01/30 14:25:29;;;;;;;;;;;;;;;-7.26;63.38;96423.19;6151966;28;19926;-64
2022/01/30 14:28:33;;;;;;;;;;;;;;;-7.32;64.04;96425.75;6152324;28;19926;-63
2022/01/30 14:31:47;;;;;;;;;;;;;;;-7.25;63.73;96427.44;6151325;28;19934;-63
2022/01/30 14:34:51;;;;;;;;;;;;;;;-7.34;63.58;96436.84;6144614;29;19930;-64
2022/01/30 14:37:55;;;;;;;;;;;;;;;-7.29;64.69;96435.97;6151143;29;19930;-63
2022/01/30 14:40:56;;;;;;;;;;;;;;;-7.39;65.52;96439.41;6151794;29;19948;-63
2022/01/30 14:43:57;;;;;;;;;;;;;;;-7.36;65.23;96436.88;6147567;28;19933;-63
2022/01/30 14:47:01;;;;;;;;;;;;;;;-7.31;65.03;96427.47;6164313;28;19930;-63
2022/01/30 14:50:02;;;;;;;;;;;;;;;-7.42;65.66;96424.06;6151028;28;19926;-63
2022/01/30 14:53:04;;;;;;;;;;;;;;;-7.42;65.71;96424.06;6139484;29;19949;-63
2022/01/30 14:56:09;;;;;;;;;;;;;;;-7.09;66.26;96417.19;6141531;28;20441;-64
2022/01/30 14:59:10;;;;;;;;;;;;;;;-7.18;65.60;96409.56;6151662;29;19926;-62
2022/01/30 15:02:11;;;;;;;;;;;;;;;-7.27;65.90;96413.84;6151515;29;19926;-63
2022/01/30 15:05:13;;;;;;;;;;;;;;;-7.15;66.24;96414.66;6150432;28;19934;-63
2022/01/30 15:08:14;;;;;;;;;;;;;;;-7.09;66.39;96417.19;6142349;29;19933;-64
2022/01/30 15:11:15;;;;;;;;;;;;;;;-7.32;66.40;96410.44;6143199;28;19927;-65
2022/01/30 15:14:22;;;;;;;;;;;;;;;-7.41;66.37;96410.47;6147515;28;19926;-62
2022/01/30 15:17:32;;;;;;;;;;;;;;;-7.55;66.74;96422.41;6144596;28;19926;-64
2022/01/30 15:20:33;;;;;;;;;;;;;;;-7.54;67.23;96408.78;6141899;28;19926;-64
2022/01/30 15:23:34;;;;;;;;;;;;;;;-7.49;67.20;96414.72;6146521;28;20347;-63
2022/01/30 15:26:35;;;;;;;;;;;;;;;-7.75;67.10;96420.72;6138614;28;19934;-62
2022/01/30 15:29:36;;;;;;;;;;;;;;;-7.78;67.09;96420.72;6146294;28;19951;-64
2022/01/30 15:32:40;;;;;;;;;;;;;;;-7.94;67.90;96408.81;6144378;28;19927;-62
2022/01/30 15:35:48;;;;;;;;;;;;;;;-7.69;67.71;96415.59;6149320;28;19970;-63
2022/01/30 15:38:50;;;;;;;;;;;;;;;-7.82;67.53;96411.34;6142888;28;19933;-63
2022/01/30 15:41:54;;;;;;;;;;;;;;;-7.95;67.95;96417.34;6138028;28;19934;-64
2022/01/30 15:51:42;;;;;;;;;;;;;;;-8.03;68.20;96434.34;6142948;28;20013;-64
2022/01/30 15:54:43;;;;;;;;;;;;;;;-8.06;68.18;96436.91;6137358;28;19922;-63
2022/01/30 15:57:44;;;;;;;;;;;;;;;-8.03;67.74;96439.47;6148881;28;19934;-61
2022/01/30 16:00:45;;;;;;;;;;;;;;;-7.99;67.85;96428.38;6140332;28;19922;-62
2022/01/30 16:03:49;;;;;;;;;;;;;;;-8.00;68.23;96422.44;6148348;29;19926;-64
2022/01/30 16:06:52;;;;;;;;;;;;;;;-8.06;68.49;96439.47;6145645;28;20032;-64
2022/01/30 16:09:57;;;;;;;;;;;;;;;-8.15;68.81;96436.03;6146414;28;19927;-64
2022/01/30 16:16:22;;;;;;;;;;;;;;;-8.00;69.42;96424.13;6141526;28;19932;-62
2022/01/30 16:19:23;;;;;;;;;;;;;;;-7.82;69.34;96424.13;6146588;28;19927;-64
2022/01/30 16:22:24;;;;;;;;;;;;;;;-7.97;70.20;96426.69;6138537;28;19930;-64
2022/01/30 16:25:28;;;;;;;;;;;;;;;-7.91;70.05;96416.47;6138764;28;19927;-64
2022/01/30 16:28:29;;;;;;;;;;;;;;;-7.97;69.48;96414.75;6133825;28;20581;-64
2022/01/30 16:31:32;;;;;;;;;;;;;;;-7.97;69.95;96406.25;6146244;28;19989;-64
2022/01/30 16:34:36;;;;;;;;;;;;;;;-7.89;70.27;96412.22;6130598;28;20025;-63
2022/01/30 16:37:37;;;;;;;;;;;;;;;-7.71;70.45;96401.97;6139170;28;19926;-63
2022/01/30 16:40:40;;;;;;;;;;;;;;;-7.61;69.86;96407.06;6138621;28;19978;-62
2022/01/30 16:43:48;;;;;;;;;;;;;;;-7.70;70.25;96393.47;6142032;28;19960;-62
2022/01/30 16:49:56;;;;;;;;;;;;;;;-7.74;71.07;96407.09;6138872;28;19964;-62
2022/01/30 16:53:00;;;;;;;;;;;;;;;-7.52;70.39;96404.53;6144981;28;19927;-62
2022/01/30 16:56:01;;;;;;;;;;;;;;;-7.40;70.02;96399.38;6145190;28;19926;-62
2022/01/30 16:59:04;;;;;;;;;;;;;;;-7.29;70.04;96397.63;6142314;28;19986;-62
2022/01/30 17:02:09;;;;;;;;;;;;;;;-7.39;70.18;96397.66;6143883;28;20388;-63